createdAt,value
2018-04-06T00:00:02.636Z,0
2018-04-06T00:05:03.298Z,0
2018-04-06T00:10:02.949Z,0
2018-04-06T00:15:03.531Z,0
2018-04-06T00:20:03.120Z,0
2018-04-06T00:25:02.702Z,0
2018-04-06T00:30:03.374Z,0
2018-04-06T00:35:02.920Z,0
2018-04-06T00:40:03.530Z,0
2018-04-06T00:45:03.106Z,0
2018-04-06T00:50:02.740Z,0
2018-04-06T00:55:03.485Z,0
2018-04-06T01:00:03.089Z,0
2018-04-06T01:05:02.647Z,0
2018-04-06T01:10:03.277Z,0
2018-04-06T01:15:02.847Z,0
2018-04-06T01:20:03.484Z,0
2018-04-06T01:25:03.129Z,0
2018-04-06T01:30:02.761Z,0
2018-04-06T01:35:03.336Z,0
2018-04-06T01:40:02.932Z,0
2018-04-06T01:45:03.605Z,0
2018-04-06T01:50:03.237Z,0
2018-04-06T01:55:02.845Z,0
2018-04-06T02:00:03.442Z,0
2018-04-06T02:05:03.007Z,0
2018-04-06T02:10:03.586Z,0
2018-04-06T02:15:03.166Z,0
2018-04-06T02:20:02.769Z,0
2018-04-06T02:25:03.339Z,0
2018-04-06T02:30:03.043Z,0
2018-04-06T02:35:02.692Z,0
2018-04-06T02:40:03.307Z,0
2018-04-06T02:45:02.884Z,0
2018-04-06T02:50:03.513Z,0
2018-04-06T02:55:03.055Z,0
2018-04-06T03:00:02.663Z,0
2018-04-06T03:05:03.544Z,0
2018-04-06T03:10:03.281Z,0
2018-04-06T03:15:02.862Z,0
2018-04-06T03:20:03.478Z,0
2018-04-06T03:25:03.084Z,0
2018-04-06T03:30:02.764Z,0
2018-04-06T03:35:03.429Z,0
2018-04-06T03:40:03.044Z,0
2018-04-06T03:45:02.649Z,0
2018-04-06T03:50:03.183Z,0
2018-04-06T03:55:02.745Z,0
2018-04-06T04:00:03.356Z,0
2018-04-06T04:05:03.038Z,0
2018-04-06T04:10:03.645Z,0
2018-04-06T04:15:03.279Z,0
2018-04-06T04:20:02.855Z,0
2018-04-06T04:25:03.395Z,0
2018-04-06T04:30:03.101Z,0
2018-04-06T04:35:02.681Z,0
2018-04-06T04:40:03.361Z,0
2018-04-06T04:45:02.862Z,0
2018-04-06T04:50:03.425Z,0
2018-04-06T04:55:02.983Z,0
2018-04-06T05:00:02.660Z,0
2018-04-06T05:05:03.206Z,0
2018-04-06T05:10:02.902Z,0
2018-04-06T05:15:03.730Z,0
2018-04-06T05:20:03.309Z,0
2018-04-06T05:25:02.835Z,0
2018-04-06T05:30:03.473Z,0
2018-04-06T05:35:03.092Z,0
2018-04-06T05:40:02.777Z,0
2018-04-06T05:45:03.414Z,0
2018-04-06T05:50:03.087Z,0
2018-04-06T05:55:02.710Z,0
2018-04-06T06:00:03.310Z,0
2018-04-06T06:05:02.888Z,0
2018-04-06T06:10:03.583Z,0
2018-04-06T06:15:03.216Z,0
2018-04-06T06:20:02.797Z,0
2018-04-06T06:25:03.460Z,0
2018-04-06T06:30:03.103Z,0
2018-04-06T06:35:02.726Z,0
2018-04-06T06:40:03.430Z,0
2018-04-06T06:45:02.994Z,0
2018-04-06T06:50:03.554Z,0
2018-04-06T06:55:03.202Z,0
2018-04-06T07:00:02.917Z,2
2018-04-06T07:05:03.580Z,0
2018-04-06T07:10:03.233Z,0
2018-04-06T07:15:02.820Z,0
2018-04-06T07:20:03.507Z,0
2018-04-06T07:25:03.121Z,2
2018-04-06T07:30:03.077Z,0
2018-04-06T07:35:02.721Z,0
2018-04-06T07:40:03.344Z,2
2018-04-06T07:45:02.881Z,5
2018-04-06T07:50:03.541Z,2
2018-04-06T07:55:03.189Z,0
2018-04-06T08:00:02.867Z,0
2018-04-06T08:05:03.499Z,1
2018-04-06T08:10:03.180Z,0
2018-04-06T08:15:02.972Z,0
2018-04-06T08:20:03.597Z,0
2018-04-06T08:25:03.252Z,0
2018-04-06T08:30:02.864Z,0
2018-04-06T08:35:03.596Z,0
2018-04-06T08:40:03.240Z,3
2018-04-06T08:45:02.875Z,3
2018-04-06T08:50:03.531Z,2
2018-04-06T08:55:03.220Z,2
2018-04-06T09:00:02.860Z,4
2018-04-06T09:05:03.514Z,0
2018-04-06T09:10:03.182Z,0
2018-04-06T09:15:03.150Z,3
2018-04-06T09:20:02.766Z,1
2018-04-06T09:25:03.397Z,0
2018-04-06T09:30:03.374Z,0
2018-04-06T09:35:03.086Z,2
2018-04-06T09:40:02.839Z,2
2018-04-06T09:45:03.501Z,0
2018-04-06T09:50:03.229Z,0
2018-04-06T09:55:02.922Z,0
2018-04-06T10:00:03.651Z,4
2018-04-06T10:05:03.247Z,0
2018-04-06T10:10:02.943Z,0
2018-04-06T10:15:03.526Z,0
2018-04-06T10:20:03.191Z,1
2018-04-06T10:25:02.841Z,1
2018-04-06T10:30:03.446Z,3
2018-04-06T10:35:03.088Z,3
2018-04-06T10:40:02.734Z,3
2018-04-06T10:45:03.308Z,0
2018-04-06T10:50:02.908Z,0
2018-04-06T10:55:03.384Z,2
2018-04-06T11:00:02.993Z,3
2018-04-06T11:05:03.611Z,3
2018-04-06T11:10:03.350Z,2
2018-04-06T11:15:02.982Z,3
2018-04-06T11:20:03.588Z,2
2018-04-06T11:25:03.198Z,2
2018-04-06T11:30:03.069Z,4
2018-04-06T11:35:02.707Z,0
2018-04-06T11:40:03.533Z,5
2018-04-06T11:45:03.098Z,1
2018-04-06T11:50:02.803Z,3
2018-04-06T11:55:03.400Z,3
2018-04-06T12:00:02.989Z,4
2018-04-06T12:05:02.732Z,6
2018-04-06T12:10:03.460Z,3
2018-04-06T12:15:03.046Z,3
2018-04-06T12:20:02.742Z,3
2018-04-06T12:25:03.573Z,3
2018-04-06T12:30:03.201Z,4
2018-04-06T12:35:02.825Z,5
2018-04-06T12:40:03.466Z,2
2018-04-06T12:45:03.098Z,5
2018-04-06T12:50:02.636Z,3
2018-04-06T12:55:03.282Z,6
2018-04-06T13:00:02.883Z,4
2018-04-06T13:05:03.509Z,4
2018-04-06T13:10:03.121Z,6
2018-04-06T13:15:02.662Z,3
2018-04-06T13:20:02.644Z,7
2018-04-06T13:25:03.269Z,5
2018-04-06T13:30:02.748Z,5
2018-04-06T13:35:03.457Z,4
2018-04-06T13:40:03.276Z,5
2018-04-06T13:45:02.805Z,3
2018-04-06T13:50:03.411Z,6
2018-04-06T13:55:03.102Z,3
2018-04-06T14:00:02.950Z,6
2018-04-06T14:05:03.514Z,6
2018-04-06T14:10:03.270Z,4
2018-04-06T14:15:02.916Z,6
2018-04-06T14:20:03.605Z,5
2018-04-06T14:25:03.233Z,5
2018-04-06T14:30:02.865Z,3
2018-04-06T14:35:03.585Z,2
2018-04-06T14:40:03.329Z,4
2018-04-06T14:45:02.886Z,3
2018-04-06T14:50:03.480Z,5
2018-04-06T14:55:03.108Z,3
2018-04-06T15:00:02.705Z,2
2018-04-06T15:05:03.326Z,4
2018-04-06T15:10:03.016Z,3
2018-04-06T15:15:02.707Z,6
2018-04-06T15:20:03.378Z,2
2018-04-06T15:25:02.932Z,7
2018-04-06T15:30:03.489Z,5
2018-04-06T15:35:03.126Z,2
2018-04-06T15:40:02.808Z,3
2018-04-06T15:45:03.424Z,4
2018-04-06T15:50:03.067Z,6
2018-04-06T15:55:02.794Z,3
2018-04-06T16:00:03.357Z,3
2018-04-06T16:05:02.993Z,3
2018-04-06T16:10:02.665Z,4
2018-04-06T16:15:03.213Z,3
2018-04-06T16:20:02.945Z,4
2018-04-06T16:25:03.527Z,3
2018-04-06T16:30:03.060Z,2
2018-04-06T16:35:02.801Z,0
2018-04-06T16:40:03.505Z,1
2018-04-06T16:45:03.064Z,1
2018-04-06T16:50:02.664Z,3
2018-04-06T16:55:03.371Z,2
2018-04-06T17:00:03.060Z,2
2018-04-06T17:05:02.719Z,2
2018-04-06T17:10:03.346Z,0
2018-04-06T17:15:02.900Z,2
2018-04-06T17:20:03.576Z,2
2018-04-06T17:25:03.256Z,4
2018-04-06T17:30:03.268Z,2
2018-04-06T17:35:02.949Z,2
2018-04-06T17:40:02.693Z,2
2018-04-06T17:45:03.332Z,1
2018-04-06T17:50:03.048Z,2
2018-04-06T17:55:02.620Z,2
2018-04-06T18:00:03.297Z,2
2018-04-06T18:05:03.000Z,2
2018-04-06T18:10:02.621Z,2
2018-04-06T18:15:03.261Z,1
2018-04-06T18:20:02.864Z,0
2018-04-06T18:25:03.460Z,0
2018-04-06T18:30:03.088Z,0
2018-04-06T18:35:02.703Z,1
2018-04-06T18:40:03.336Z,2
2018-04-06T18:45:02.952Z,2
2018-04-06T18:50:03.465Z,3
2018-04-06T18:55:03.112Z,0
2018-04-06T19:00:02.694Z,1
2018-04-06T19:05:03.287Z,2
2018-04-06T19:10:02.951Z,2
2018-04-06T19:15:03.570Z,3
2018-04-06T19:20:03.209Z,2
2018-04-06T19:25:02.900Z,3
2018-04-06T19:30:03.487Z,2
2018-04-06T19:35:03.086Z,2
2018-04-06T19:40:02.781Z,3
2018-04-06T19:45:03.351Z,3
2018-04-06T19:50:03.044Z,4
2018-04-06T19:55:02.912Z,2
2018-04-06T20:00:02.766Z,3
2018-04-06T20:05:03.438Z,3
2018-04-06T20:10:03.140Z,4
2018-04-06T20:15:02.858Z,2
2018-04-06T20:20:03.501Z,0
2018-04-06T20:25:03.075Z,3
2018-04-06T20:30:02.774Z,2
2018-04-06T20:35:03.520Z,3
2018-04-06T20:40:03.261Z,2
2018-04-06T20:45:02.962Z,1
2018-04-06T20:50:03.607Z,0
2018-04-06T20:55:03.264Z,1
2018-04-06T21:00:02.927Z,2
2018-04-06T21:05:03.581Z,3
2018-04-06T21:10:03.249Z,2
2018-04-06T21:15:02.972Z,3
2018-04-06T21:20:02.658Z,4
2018-04-06T21:25:03.317Z,2
2018-04-06T21:30:03.358Z,2
2018-04-06T21:35:02.976Z,3
2018-04-06T21:40:03.648Z,2
2018-04-06T21:45:03.328Z,2
2018-04-06T21:50:03.099Z,2
2018-04-06T21:55:02.727Z,1
2018-04-06T22:00:03.360Z,0
2018-04-06T22:05:03.016Z,1
2018-04-06T22:10:02.682Z,0
2018-04-06T22:15:03.261Z,0
2018-04-06T22:20:02.929Z,0
2018-04-06T22:25:03.512Z,0
2018-04-06T22:30:03.059Z,2
2018-04-06T22:35:02.652Z,0
2018-04-06T22:40:03.299Z,2
2018-04-06T22:45:02.910Z,1
2018-04-06T22:50:03.553Z,0
2018-04-06T22:55:03.178Z,0
2018-04-06T23:00:04.978Z,0
2018-04-06T23:05:03.472Z,0
2018-04-06T23:10:03.168Z,0
2018-04-06T23:15:02.867Z,0
2018-04-06T23:20:03.490Z,0
2018-04-06T23:25:03.049Z,0
2018-04-06T23:30:02.657Z,0
2018-04-06T23:35:03.493Z,0
2018-04-06T23:40:03.153Z,0
2018-04-06T23:45:03.075Z,0
2018-04-06T23:50:02.655Z,0
2018-04-06T23:55:03.302Z,0
